KLUK/LUK METAR and TAF weather

Enter ICAO airport designator
Station Type Date Time Source
KLUK METAR 2019/10/19 06:53 UTC NOAA

KLUK 190653Z AUTO 00000KT 10SM R21L/3000VP6000FT CLR 03/02 A3001 RMK AO2 SLP162 T00280017


Station Type Date Time Source
KLUK Decoded METAR 2019/10/19 06:53 UTC NOAA

CINCINNATI MUN LUNKEN FLD, OH, United States (KLUK) 39-06N 84-25W 155M
Oct 19, 2019 - 02:53 AM EDT / 2019.10.19 0653 UTC
Wind: Calm:0
Visibility: 10 mile(s):0
Sky conditions: clear
Temperature: 37.0 F (2.8 C)
Dew Point: 35.1 F (1.7 C)
Relative Humidity: 92%
Pressure (altimeter): 30.01 in. Hg (1016 hPa)
ob: KLUK 190653Z AUTO 00000KT 10SM R21L/3000VP6000FT CLR 03/02 A3001 RMK AO2 SLP162 T00280017
cycle: 7

Station Type Date Time Source
KLUK TAF 2019/10/19 06:24 UTC NOAA

TAF KLUK 190523Z 1906/2006 00000KT 3SM BR SCT250
FM190900 00000KT 1SM BR SCT002
TEMPO 1910/1912 1/2SM FG VV002
FM191300 13003KT P6SM SCT250
FM191500 16005KT P6SM BKN250
FM200000 00000KT P6SM SCT250

Example: see airport list